createdAt,value
2022-12-11T00:00:56.085Z,2.50
2022-12-11T00:03:22.814Z,2.40
2022-12-11T00:05:49.712Z,2.50
2022-12-11T00:08:16.470Z,2.30
2022-12-11T00:10:52.386Z,2.00
2022-12-11T00:13:21.281Z,2.30
2022-12-11T00:15:52.626Z,2.20
2022-12-11T00:18:19.453Z,2.10
2022-12-11T00:20:46.260Z,2.20
2022-12-11T00:23:12.949Z,2.10
2022-12-11T00:25:47.110Z,2.10
2022-12-11T00:28:16.807Z,2.10
2022-12-11T00:30:43.590Z,2.30
2022-12-11T00:33:11.716Z,2.30
2022-12-11T00:35:42.937Z,2.40
2022-12-11T00:38:19.986Z,2.40
2022-12-11T00:40:47.082Z,2.20
2022-12-11T00:43:16.817Z,2.20
2022-12-11T00:45:48.365Z,2.30
2022-12-11T00:48:17.403Z,2.30
2022-12-11T00:50:44.077Z,2.30
2022-12-11T00:53:10.859Z,2.30
2022-12-11T00:55:39.455Z,2.20
2022-12-11T00:58:06.218Z,2.20
2022-12-11T01:00:37.606Z,2.40
2022-12-11T01:03:04.943Z,2.40
2022-12-11T01:05:34.317Z,2.50
2022-12-11T01:08:06.925Z,2.40
2022-12-11T01:10:35.866Z,2.50
2022-12-11T01:13:05.730Z,2.40
2022-12-11T01:15:41.877Z,2.30
2022-12-11T01:18:13.168Z,2.40
2022-12-11T01:20:43.389Z,2.20
2022-12-11T01:23:14.255Z,2.20
2022-12-11T01:25:43.714Z,2.00
2022-12-11T01:28:12.795Z,2.10
2022-12-11T01:30:41.940Z,2.10
2022-12-11T01:33:13.368Z,2.10
2022-12-11T01:35:40.408Z,2.10
2022-12-11T01:38:09.474Z,2.20
2022-12-11T01:40:38.380Z,2.20
2022-12-11T01:43:11.252Z,2.20
2022-12-11T01:45:44.811Z,2.20
2022-12-11T01:48:36.782Z,2.30
2022-12-11T01:51:07.631Z,2.30
2022-12-11T01:53:38.773Z,2.40
2022-12-11T01:56:08.222Z,2.40
2022-12-11T01:58:41.528Z,2.40
2022-12-11T02:01:12.268Z,2.30
2022-12-11T02:03:41.483Z,2.50
2022-12-11T02:06:32.060Z,2.50
2022-12-11T02:09:02.365Z,2.40
2022-12-11T02:11:47.533Z,2.30
2022-12-11T02:14:30.350Z,2.30
2022-12-11T02:17:21.438Z,2.30
2022-12-11T02:19:59.362Z,2.40
2022-12-11T02:22:55.595Z,2.30
2022-12-11T02:25:38.853Z,2.30
2022-12-11T02:28:33.596Z,2.30
2022-12-11T02:31:10.670Z,2.20
2022-12-11T02:34:05.655Z,2.30
2022-12-11T02:36:40.370Z,2.50
2022-12-11T02:39:14.064Z,2.50
2022-12-11T02:41:46.649Z,2.50
2022-12-11T02:44:21.800Z,2.50
2022-12-11T02:46:52.230Z,2.60
2022-12-11T02:49:20.706Z,2.40
2022-12-11T02:51:47.428Z,2.20
2022-12-11T02:54:29.209Z,2.20
2022-12-11T02:57:05.213Z,2.10
2022-12-11T02:59:45.783Z,2.00
2022-12-11T03:02:16.847Z,2.10
2022-12-11T03:04:48.344Z,2.40
2022-12-11T03:07:19.357Z,2.50
2022-12-11T03:09:47.721Z,2.40
2022-12-11T03:12:20.429Z,2.40
2022-12-11T03:14:50.274Z,2.30
2022-12-11T03:17:27.067Z,2.30
2022-12-11T03:20:04.985Z,2.40
2022-12-11T03:22:38.899Z,2.50
2022-12-11T03:25:20.052Z,2.40
2022-12-11T03:28:12.830Z,2.30
2022-12-11T03:30:41.831Z,2.40
2022-12-11T03:33:16.228Z,2.20
2022-12-11T03:35:45.469Z,2.40
2022-12-11T03:38:19.720Z,2.40
2022-12-11T03:40:54.047Z,2.60
2022-12-11T03:43:26.281Z,2.50
2022-12-11T03:45:54.556Z,2.50
2022-12-11T03:48:27.732Z,2.60
2022-12-11T03:50:54.931Z,2.50
2022-12-11T03:53:22.575Z,2.50
2022-12-11T03:55:51.352Z,2.40
2022-12-11T03:58:18.131Z,2.30
2022-12-11T04:00:47.286Z,2.20
2022-12-11T04:03:14.606Z,2.10
2022-12-11T04:06:01.931Z,2.30
2022-12-11T04:08:28.673Z,2.30
2022-12-11T04:11:18.848Z,2.20
2022-12-11T04:13:45.617Z,2.10
2022-12-11T04:16:14.448Z,2.30
2022-12-11T04:19:02.245Z,2.30
2022-12-11T04:21:47.613Z,2.30
2022-12-11T04:24:16.613Z,2.50
2022-12-11T04:26:45.064Z,2.30
2022-12-11T04:29:11.968Z,2.40
2022-12-11T04:31:38.804Z,2.50
2022-12-11T04:34:07.901Z,2.50
2022-12-11T04:36:34.548Z,2.30
2022-12-11T04:39:01.206Z,2.40
2022-12-11T04:41:28.479Z,2.30
2022-12-11T04:43:59.859Z,2.40
2022-12-11T04:46:26.937Z,2.30
2022-12-11T04:48:57.895Z,2.20
2022-12-11T04:51:27.667Z,2.20
2022-12-11T04:53:55.003Z,2.60
2022-12-11T04:56:21.952Z,2.50
2022-12-11T04:58:48.733Z,2.60
2022-12-11T05:01:23.420Z,2.40
2022-12-11T05:03:52.708Z,2.40
2022-12-11T05:06:25.214Z,2.60
2022-12-11T05:08:54.322Z,2.60
2022-12-11T05:11:23.253Z,2.60
2022-12-11T05:13:52.425Z,2.60
2022-12-11T05:16:19.219Z,2.50
2022-12-11T05:18:47.443Z,2.60
2022-12-11T05:21:17.734Z,2.40
2022-12-11T05:23:44.549Z,2.60
2022-12-11T05:26:17.202Z,2.40
2022-12-11T05:28:45.098Z,2.30
2022-12-11T05:31:17.906Z,2.30
2022-12-11T05:33:48.461Z,2.40
2022-12-11T05:36:34.242Z,2.50
2022-12-11T05:39:04.952Z,2.50
2022-12-11T05:41:32.680Z,2.30
2022-12-11T05:44:02.147Z,2.40
2022-12-11T05:46:30.818Z,2.50
2022-12-11T05:49:07.914Z,2.30
2022-12-11T05:51:35.069Z,2.30
2022-12-11T05:54:05.421Z,2.40
2022-12-11T05:56:35.612Z,2.40
2022-12-11T05:59:06.629Z,2.50
2022-12-11T06:01:39.648Z,2.50
2022-12-11T06:04:08.596Z,2.60
2022-12-11T06:06:36.031Z,2.70
2022-12-11T06:09:07.958Z,2.70
2022-12-11T06:11:37.894Z,2.70
2022-12-11T06:14:05.086Z,2.80
2022-12-11T06:16:32.348Z,2.60
2022-12-11T06:19:01.463Z,2.70
2022-12-11T06:21:30.658Z,2.60
2022-12-11T06:23:59.210Z,2.40
2022-12-11T06:26:32.032Z,2.60
2022-12-11T06:28:59.239Z,2.50
2022-12-11T06:31:28.513Z,2.60
2022-12-11T06:33:55.519Z,2.70
2022-12-11T06:36:27.223Z,2.60
2022-12-11T06:38:55.474Z,2.60
2022-12-11T06:41:24.712Z,2.70
2022-12-11T06:43:54.266Z,2.70
2022-12-11T06:46:21.179Z,2.70
2022-12-11T06:48:48.646Z,2.70
2022-12-11T06:51:18.261Z,2.70
2022-12-11T06:53:50.773Z,2.60
2022-12-11T06:56:17.480Z,2.60
2022-12-11T06:58:44.616Z,2.60
2022-12-11T07:01:29.854Z,2.50
2022-12-11T07:03:58.512Z,2.50
2022-12-11T07:06:28.945Z,2.60
2022-12-11T07:09:00.404Z,2.60
2022-12-11T07:11:27.050Z,2.60
2022-12-11T07:13:56.119Z,2.70
2022-12-11T07:16:25.394Z,2.70
2022-12-11T07:18:52.830Z,2.70
2022-12-11T07:21:20.732Z,2.60
2022-12-11T07:23:47.919Z,2.60
2022-12-11T07:26:19.140Z,2.60
2022-12-11T07:28:48.908Z,2.60
2022-12-11T07:31:22.413Z,2.40
2022-12-11T07:33:57.199Z,2.40
2022-12-11T07:36:24.825Z,2.20
2022-12-11T07:38:54.306Z,2.30
2022-12-11T07:41:21.380Z,2.50
2022-12-11T07:43:50.716Z,2.50
2022-12-11T07:46:20.042Z,2.40
2022-12-11T07:48:50.182Z,2.20
2022-12-11T07:51:18.327Z,2.40
2022-12-11T07:53:49.109Z,2.40
2022-12-11T07:56:19.120Z,2.70
2022-12-11T07:58:46.781Z,2.80
2022-12-11T08:01:21.945Z,2.70
2022-12-11T08:03:49.567Z,2.60
2022-12-11T08:06:21.348Z,2.50
2022-12-11T08:08:50.315Z,2.50
2022-12-11T08:11:17.036Z,2.70
2022-12-11T08:13:46.048Z,2.80
2022-12-11T08:16:17.086Z,3.00
2022-12-11T08:18:45.952Z,3.00
2022-12-11T08:21:24.074Z,2.90
2022-12-11T08:23:54.391Z,2.90
2022-12-11T08:26:29.840Z,3.00
2022-12-11T08:28:57.182Z,2.90
2022-12-11T08:31:26.746Z,2.70
2022-12-11T08:33:59.019Z,2.70
2022-12-11T08:36:26.148Z,2.90
2022-12-11T08:38:56.412Z,3.00
2022-12-11T08:41:29.218Z,2.80
2022-12-11T08:43:57.614Z,2.70
2022-12-11T08:46:27.237Z,2.60
2022-12-11T08:48:57.011Z,2.50
2022-12-11T08:51:30.132Z,2.50
2022-12-11T08:53:58.757Z,2.50
2022-12-11T08:56:26.969Z,2.80
2022-12-11T08:58:54.070Z,2.80
2022-12-11T09:01:26.115Z,2.80
2022-12-11T09:03:59.165Z,2.80
2022-12-11T09:06:28.012Z,2.80
2022-12-11T09:08:56.123Z,2.80
2022-12-11T09:11:28.049Z,2.90
2022-12-11T09:13:55.124Z,3.00
2022-12-11T09:16:25.281Z,2.90
2022-12-11T09:18:54.759Z,2.80
2022-12-11T09:21:27.507Z,2.80
2022-12-11T09:23:58.691Z,2.80
2022-12-11T09:26:26.642Z,2.90
2022-12-11T09:28:53.806Z,3.00
2022-12-11T09:31:26.431Z,3.00
2022-12-11T09:33:56.643Z,3.00
2022-12-11T09:36:23.913Z,2.90
2022-12-11T09:38:53.569Z,2.90
2022-12-11T09:41:29.309Z,3.00
2022-12-11T09:44:05.128Z,3.00
2022-12-11T09:46:34.533Z,2.90
2022-12-11T09:49:06.904Z,2.80
2022-12-11T09:51:38.474Z,2.80
2022-12-11T09:54:11.546Z,3.00
2022-12-11T09:57:16.957Z,2.80
2022-12-11T10:00:05.987Z,2.90
2022-12-11T10:02:52.849Z,3.00
2022-12-11T10:05:45.897Z,3.00
2022-12-11T10:08:31.508Z,2.90
2022-12-11T10:11:09.824Z,2.70
2022-12-11T10:13:41.490Z,2.70
2022-12-11T10:16:33.647Z,2.70
2022-12-11T10:19:00.597Z,2.80
2022-12-11T10:21:31.757Z,2.90
2022-12-11T10:24:06.991Z,3.00
2022-12-11T10:26:39.586Z,3.10
2022-12-11T10:29:15.671Z,3.20
2022-12-11T10:31:50.337Z,3.20
2022-12-11T10:34:35.997Z,3.10
2022-12-11T10:37:03.651Z,3.00
2022-12-11T10:39:32.631Z,3.00
2022-12-11T10:42:04.902Z,3.00
2022-12-11T10:44:34.111Z,2.80
2022-12-11T10:47:20.215Z,2.80
2022-12-11T10:50:00.281Z,2.80
2022-12-11T10:52:38.206Z,2.90
2022-12-11T10:55:08.804Z,2.90
2022-12-11T10:57:36.992Z,2.70
2022-12-11T11:00:26.427Z,2.80
2022-12-11T11:02:53.296Z,2.80
2022-12-11T11:05:35.489Z,2.60
2022-12-11T11:08:21.382Z,2.60
2022-12-11T11:11:01.498Z,2.80
2022-12-11T11:13:30.893Z,2.80
2022-12-11T11:16:06.548Z,3.00
2022-12-11T11:18:33.642Z,3.10
2022-12-11T11:21:01.376Z,3.10
2022-12-11T11:23:29.124Z,3.10
2022-12-11T11:26:02.141Z,3.20
2022-12-11T11:28:34.072Z,3.10
2022-12-11T11:31:12.532Z,3.20
2022-12-11T11:33:54.048Z,3.10
2022-12-11T11:36:26.902Z,3.10
2022-12-11T11:39:17.506Z,3.00
2022-12-11T11:41:59.720Z,3.10
2022-12-11T11:44:38.859Z,3.20
2022-12-11T11:47:13.986Z,3.20
2022-12-11T11:50:00.009Z,3.10
2022-12-11T11:52:34.303Z,3.00
2022-12-11T11:55:39.869Z,3.10
2022-12-11T11:58:19.507Z,3.10
2022-12-11T12:00:46.525Z,3.10
2022-12-11T12:03:17.510Z,3.10
2022-12-11T12:06:22.137Z,3.10
2022-12-11T12:09:21.544Z,3.00
2022-12-11T12:11:54.941Z,3.10
2022-12-11T12:14:52.175Z,3.10
2022-12-11T12:17:38.676Z,3.00
2022-12-11T12:20:13.605Z,3.10
2022-12-11T12:22:49.620Z,3.10
2022-12-11T12:25:34.861Z,3.20
2022-12-11T12:28:31.874Z,3.30
2022-12-11T12:30:58.587Z,3.30
2022-12-11T12:34:09.360Z,3.60
2022-12-11T12:40:59.897Z,3.50
2022-12-11T12:43:48.977Z,3.50
2022-12-11T12:46:27.804Z,3.50
2022-12-11T12:48:57.210Z,3.60
2022-12-11T12:51:26.084Z,3.60
2022-12-11T12:54:03.887Z,3.70
2022-12-11T12:56:33.983Z,3.70
2022-12-11T12:59:00.745Z,3.80
2022-12-11T13:01:29.804Z,3.80
2022-12-11T13:04:02.115Z,3.90
2022-12-11T13:06:41.659Z,3.80
2022-12-11T13:09:23.814Z,3.70
2022-12-11T13:11:57.798Z,3.60
2022-12-11T13:14:31.720Z,3.60
2022-12-11T13:17:22.306Z,3.70
2022-12-11T13:19:53.013Z,3.70
2022-12-11T13:22:24.998Z,3.60
2022-12-11T13:24:54.874Z,3.70
2022-12-11T13:27:42.773Z,3.80
2022-12-11T13:30:15.563Z,3.90
2022-12-11T13:33:10.228Z,3.90
2022-12-11T13:35:37.397Z,3.80
2022-12-11T13:38:17.754Z,3.70
2022-12-11T13:40:46.879Z,3.80
2022-12-11T13:43:22.511Z,3.80
2022-12-11T13:45:51.684Z,3.70
2022-12-11T13:48:27.303Z,3.50
2022-12-11T13:50:57.695Z,3.60
2022-12-11T13:53:29.367Z,3.60
2022-12-11T13:56:01.761Z,3.70
2022-12-11T13:58:29.738Z,3.70
2022-12-11T14:01:11.272Z,3.80
2022-12-11T14:03:48.813Z,3.90
2022-12-11T14:06:19.081Z,3.90
2022-12-11T14:08:52.818Z,3.90
2022-12-11T14:11:27.856Z,3.80
2022-12-11T14:13:57.780Z,3.80
2022-12-11T14:16:26.672Z,3.80
2022-12-11T14:18:56.847Z,3.70
2022-12-11T14:21:25.719Z,3.70
2022-12-11T14:23:58.211Z,3.70
2022-12-11T14:26:34.251Z,3.60
2022-12-11T14:29:02.693Z,3.60
2022-12-11T14:31:37.678Z,3.70
2022-12-11T14:34:25.349Z,3.70
2022-12-11T14:36:57.658Z,3.70
2022-12-11T14:39:31.010Z,3.50
2022-12-11T14:42:12.416Z,3.50
2022-12-11T14:45:02.329Z,3.50
2022-12-11T14:47:38.809Z,3.60
2022-12-11T14:50:25.059Z,3.60
2022-12-11T14:52:59.034Z,3.50
2022-12-11T14:55:32.556Z,3.40
2022-12-11T14:58:02.601Z,3.50
2022-12-11T15:00:40.532Z,3.40
2022-12-11T15:03:10.181Z,3.30
2022-12-11T15:05:57.581Z,3.30
2022-12-11T15:08:33.083Z,3.20
2022-12-11T15:11:05.228Z,3.40
2022-12-11T15:13:36.415Z,3.20
2022-12-11T15:16:08.226Z,3.20
2022-12-11T15:18:38.373Z,3.10
2022-12-11T15:21:09.382Z,3.20
2022-12-11T15:23:54.653Z,3.30
2022-12-11T15:26:36.550Z,3.30
2022-12-11T15:29:26.784Z,3.40
2022-12-11T15:32:23.293Z,3.40
2022-12-11T15:35:01.186Z,3.30
2022-12-11T15:37:36.235Z,3.30
2022-12-11T15:40:06.280Z,3.30
2022-12-11T15:42:39.634Z,3.40
2022-12-11T15:45:08.918Z,3.30
2022-12-11T15:47:35.727Z,3.30
2022-12-11T15:50:13.059Z,3.40
2022-12-11T15:52:48.503Z,3.50
2022-12-11T15:55:18.206Z,3.50
2022-12-11T15:58:01.201Z,3.40
2022-12-11T16:00:30.505Z,3.50
2022-12-11T16:02:59.836Z,3.40
2022-12-11T16:05:27.290Z,3.50
2022-12-11T16:07:59.530Z,3.50
2022-12-11T16:10:29.380Z,3.50
2022-12-11T16:12:59.704Z,3.60
2022-12-11T16:15:27.186Z,3.60
2022-12-11T16:18:06.253Z,3.50
2022-12-11T16:20:34.119Z,3.60
2022-12-11T16:23:01.163Z,3.50
2022-12-11T16:25:32.840Z,3.50
2022-12-11T16:28:03.637Z,3.50
2022-12-11T16:30:30.362Z,3.30
2022-12-11T16:32:57.455Z,3.30
2022-12-11T16:35:24.127Z,3.30
2022-12-11T16:37:53.261Z,3.40
2022-12-11T16:40:20.687Z,3.30
2022-12-11T16:42:49.226Z,3.40
2022-12-11T16:45:26.181Z,3.40
2022-12-11T16:47:58.139Z,3.30
2022-12-11T16:50:26.974Z,3.30
2022-12-11T16:52:56.553Z,3.30
2022-12-11T16:55:25.856Z,3.40
2022-12-11T16:57:52.572Z,3.40
2022-12-11T17:00:21.993Z,3.40
2022-12-11T17:02:49.050Z,3.40
2022-12-11T17:05:17.886Z,3.40
2022-12-11T17:07:44.545Z,3.30
2022-12-11T17:10:13.670Z,3.40
2022-12-11T17:12:40.339Z,3.40
2022-12-11T17:15:10.569Z,3.40
2022-12-11T17:17:39.921Z,3.40
2022-12-11T17:20:13.314Z,3.30
2022-12-11T17:22:40.526Z,3.20
2022-12-11T17:25:10.520Z,3.20
2022-12-11T17:27:37.871Z,3.20
2022-12-11T17:30:07.199Z,3.30
2022-12-11T17:32:33.914Z,3.30
2022-12-11T17:35:02.814Z,3.40
2022-12-11T17:37:30.537Z,3.50
2022-12-11T17:39:59.678Z,3.30
2022-12-11T17:42:28.776Z,3.20
2022-12-11T17:44:55.438Z,3.20
2022-12-11T17:47:24.759Z,3.30
2022-12-11T17:49:53.673Z,3.30
2022-12-11T17:52:23.024Z,3.30
2022-12-11T17:54:49.703Z,3.30
2022-12-11T17:57:16.354Z,3.20
2022-12-11T17:59:45.207Z,3.20
2022-12-11T18:02:12.142Z,3.10
2022-12-11T18:04:39.544Z,3.10
2022-12-11T18:07:13.963Z,3.30
2022-12-11T18:09:43.352Z,3.30
2022-12-11T18:12:10.394Z,3.30
2022-12-11T18:14:37.683Z,3.30
2022-12-11T18:17:04.570Z,3.30
2022-12-11T18:19:33.668Z,3.30
2022-12-11T18:22:02.665Z,3.30
2022-12-11T18:24:32.055Z,3.30
2022-12-11T18:27:01.057Z,3.30
2022-12-11T18:29:28.038Z,3.30
2022-12-11T18:31:55.113Z,3.30
2022-12-11T18:34:21.869Z,3.30
2022-12-11T18:36:48.722Z,3.20
2022-12-11T18:39:17.747Z,3.20
2022-12-11T18:41:53.829Z,3.30
2022-12-11T18:44:30.416Z,3.30
2022-12-11T18:46:59.712Z,3.20
2022-12-11T18:49:28.608Z,3.20
2022-12-11T18:51:55.395Z,3.10
2022-12-11T18:54:24.529Z,3.10
2022-12-11T18:56:51.214Z,3.10
2022-12-11T18:59:17.945Z,3.10
2022-12-11T19:01:47.088Z,3.00
2022-12-11T19:04:15.931Z,3.20
2022-12-11T19:06:42.627Z,3.20
2022-12-11T19:09:11.328Z,3.20
2022-12-11T19:11:44.213Z,3.20
2022-12-11T19:14:11.286Z,3.20
2022-12-11T19:16:46.515Z,3.10
2022-12-11T19:19:18.529Z,3.10
2022-12-11T19:21:45.941Z,3.10
2022-12-11T19:24:16.181Z,3.10
2022-12-11T19:26:48.314Z,3.00
2022-12-11T19:29:24.637Z,3.10
2022-12-11T19:31:51.649Z,3.00
2022-12-11T19:34:18.722Z,3.00
2022-12-11T19:36:45.398Z,3.10
2022-12-11T19:39:14.925Z,3.10
2022-12-11T19:41:47.681Z,3.10
2022-12-11T19:44:14.564Z,3.00
2022-12-11T19:46:45.186Z,3.00
2022-12-11T19:49:14.482Z,3.10
2022-12-11T19:51:44.912Z,3.00
2022-12-11T19:54:16.681Z,3.00
2022-12-11T19:56:44.737Z,3.10
2022-12-11T19:59:15.714Z,3.10
2022-12-11T20:01:43.317Z,3.10
2022-12-11T20:04:16.573Z,3.20
2022-12-11T20:06:49.304Z,3.20
2022-12-11T20:09:19.492Z,3.20
2022-12-11T20:11:52.108Z,3.10
2022-12-11T20:14:23.900Z,3.10
2022-12-11T20:19:43.309Z,3.10
2022-12-11T20:22:10.244Z,3.20
2022-12-11T20:24:42.456Z,3.20
2022-12-11T20:27:11.748Z,3.20
2022-12-11T20:29:42.562Z,3.30
2022-12-11T20:32:16.749Z,3.20
2022-12-11T20:34:43.424Z,3.10
2022-12-11T20:37:11.163Z,3.10
2022-12-11T20:39:41.442Z,3.10
2022-12-11T20:42:13.056Z,3.10
2022-12-11T20:44:48.988Z,3.10
2022-12-11T20:47:19.566Z,3.20
2022-12-11T20:49:51.206Z,3.20
2022-12-11T20:52:19.128Z,3.20
2022-12-11T20:54:48.895Z,3.20
2022-12-11T20:57:30.612Z,3.10
2022-12-11T20:59:57.334Z,3.10
2022-12-11T21:02:31.489Z,3.20
2022-12-11T21:05:00.602Z,3.20
2022-12-11T21:07:27.701Z,3.20
2022-12-11T21:09:57.250Z,3.10
2022-12-11T21:12:29.817Z,3.20
2022-12-11T21:15:07.664Z,3.00
2022-12-11T21:17:38.334Z,2.90
2022-12-11T21:20:12.190Z,2.90
2022-12-11T21:22:38.892Z,3.00
2022-12-11T21:25:08.271Z,3.10
2022-12-11T21:27:59.856Z,3.00
2022-12-11T21:30:29.926Z,2.90
2022-12-11T21:33:00.902Z,3.10
2022-12-11T21:35:29.887Z,2.90
2022-12-11T21:37:56.685Z,2.90
2022-12-11T21:40:36.473Z,2.80
2022-12-11T21:43:05.360Z,2.80
2022-12-11T21:46:00.239Z,2.90
2022-12-11T21:48:25.944Z,2.70
2022-12-11T21:50:52.631Z,2.70
2022-12-11T21:53:19.461Z,2.60
2022-12-11T21:55:48.386Z,2.60
2022-12-11T21:58:15.667Z,2.70
2022-12-11T22:00:42.451Z,2.60
2022-12-11T22:03:11.392Z,2.70
2022-12-11T22:05:42.904Z,2.70
2022-12-11T22:08:12.203Z,2.60
2022-12-11T22:10:38.978Z,2.60
2022-12-11T22:13:07.832Z,2.70
2022-12-11T22:15:34.491Z,2.80
2022-12-11T22:18:01.211Z,2.80
2022-12-11T22:20:30.176Z,2.80
2022-12-11T22:23:01.530Z,2.90
2022-12-11T22:25:29.211Z,2.80
2022-12-11T22:27:56.066Z,2.70
2022-12-11T22:30:26.975Z,2.70
2022-12-11T22:32:53.800Z,2.70
2022-12-11T22:35:27.399Z,2.70
2022-12-11T22:37:54.575Z,2.70
2022-12-11T22:40:26.735Z,2.70
2022-12-11T22:42:58.325Z,2.70
2022-12-11T22:45:25.173Z,2.60
2022-12-11T22:47:54.371Z,2.70
2022-12-11T22:50:23.878Z,2.60
2022-12-11T22:52:50.553Z,2.70
2022-12-11T22:55:21.019Z,2.70
2022-12-11T22:57:50.076Z,2.70
2022-12-11T23:00:17.065Z,2.80
2022-12-11T23:02:45.127Z,2.80
2022-12-11T23:05:14.700Z,2.70
2022-12-11T23:07:41.511Z,2.80
2022-12-11T23:10:14.578Z,2.90
2022-12-11T23:12:43.435Z,2.90
2022-12-11T23:15:11.118Z,2.80
2022-12-11T23:17:38.011Z,2.70
2022-12-11T23:20:06.197Z,2.90
2022-12-11T23:22:33.384Z,3.00
2022-12-11T23:25:00.176Z,2.90
2022-12-11T23:27:29.525Z,3.00
2022-12-11T23:29:56.419Z,3.00
2022-12-11T23:32:23.152Z,3.20
2022-12-11T23:34:49.798Z,3.20
2022-12-11T23:37:18.835Z,3.20
2022-12-11T23:39:50.203Z,3.10
2022-12-11T23:42:16.911Z,3.10
2022-12-11T23:44:46.025Z,3.10
2022-12-11T23:47:12.680Z,3.10
2022-12-11T23:49:43.957Z,3.10
2022-12-11T23:52:13.170Z,3.20
2022-12-11T23:54:42.042Z,3.20
2022-12-11T23:57:08.815Z,3.00
2022-12-11T23:59:39.430Z,3.00
